sensor_id;sensor_type;location;lat;lon;timestamp;temperature;humidity
7942;HTU21D;4016;50.758;7.150;2024-02-28T00:02:56;3.56;118.99
7942;HTU21D;4016;50.758;7.150;2024-02-28T00:07:56;3.59;118.99
7942;HTU21D;4016;50.758;7.150;2024-02-28T00:12:56;3.65;118.99
7942;HTU21D;4016;50.758;7.150;2024-02-28T00:17:57;3.67;118.99
7942;HTU21D;4016;50.758;7.150;2024-02-28T00:22:57;3.72;118.99
7942;HTU21D;4016;50.758;7.150;2024-02-28T00:27:57;3.86;118.99
7942;HTU21D;4016;50.758;7.150;2024-02-28T00:32:59;4.38;118.99
7942;HTU21D;4016;50.758;7.150;2024-02-28T00:38:00;4.39;118.99
7942;HTU21D;4016;50.758;7.150;2024-02-28T00:43:01;4.34;118.99
7942;HTU21D;4016;50.758;7.150;2024-02-28T00:48:02;4.26;118.99
7942;HTU21D;4016;50.758;7.150;2024-02-28T00:53:03;4.18;118.99
7942;HTU21D;4016;50.758;7.150;2024-02-28T00:58:04;4.09;118.99
7942;HTU21D;4016;50.758;7.150;2024-02-28T01:03:04;4.16;118.99
7942;HTU21D;4016;50.758;7.150;2024-02-28T01:08:06;4.07;118.99
7942;HTU21D;4016;50.758;7.150;2024-02-28T01:13:06;4.08;118.99
7942;HTU21D;4016;50.758;7.150;2024-02-28T01:18:06;4.17;118.99
7942;HTU21D;4016;50.758;7.150;2024-02-28T01:23:07;4.15;118.99
7942;HTU21D;4016;50.758;7.150;2024-02-28T01:28:07;4.18;118.99
7942;HTU21D;4016;50.758;7.150;2024-02-28T01:33:07;4.27;118.99
7942;HTU21D;4016;50.758;7.150;2024-02-28T01:38:08;4.28;118.99
7942;HTU21D;4016;50.758;7.150;2024-02-28T01:43:08;4.22;118.99
7942;HTU21D;4016;50.758;7.150;2024-02-28T01:48:11;4.31;118.99
7942;HTU21D;4016;50.758;7.150;2024-02-28T01:53:12;4.22;118.99
7942;HTU21D;4016;50.758;7.150;2024-02-28T01:58:13;4.22;118.99
7942;HTU21D;4016;50.758;7.150;2024-02-28T02:03:14;4.23;118.99
7942;HTU21D;4016;50.758;7.150;2024-02-28T02:08:14;4.27;118.99
7942;HTU21D;4016;50.758;7.150;2024-02-28T02:13:15;4.35;118.99
7942;HTU21D;4016;50.758;7.150;2024-02-28T02:18:15;4.50;118.99
7942;HTU21D;4016;50.758;7.150;2024-02-28T02:23:16;4.36;118.99
7942;HTU21D;4016;50.758;7.150;2024-02-28T02:28:16;4.37;118.99
7942;HTU21D;4016;50.758;7.150;2024-02-28T02:33:17;4.36;118.99
7942;HTU21D;4016;50.758;7.150;2024-02-28T02:38:17;4.36;118.99
7942;HTU21D;4016;50.758;7.150;2024-02-28T02:43:18;4.42;118.99
7942;HTU21D;4016;50.758;7.150;2024-02-28T02:48:18;4.52;118.99
7942;HTU21D;4016;50.758;7.150;2024-02-28T02:53:18;4.51;118.99
7942;HTU21D;4016;50.758;7.150;2024-02-28T02:58:19;4.48;118.99
7942;HTU21D;4016;50.758;7.150;2024-02-28T03:03:19;4.49;118.99
7942;HTU21D;4016;50.758;7.150;2024-02-28T03:08:20;4.62;118.99
7942;HTU21D;4016;50.758;7.150;2024-02-28T03:13:20;4.62;118.99
7942;HTU21D;4016;50.758;7.150;2024-02-28T03:18:21;4.61;118.99
7942;HTU21D;4016;50.758;7.150;2024-02-28T03:23:21;4.78;118.99
7942;HTU21D;4016;50.758;7.150;2024-02-28T03:28:21;4.77;118.99
7942;HTU21D;4016;50.758;7.150;2024-02-28T03:33:22;4.44;118.99
7942;HTU21D;4016;50.758;7.150;2024-02-28T03:38:22;4.54;118.99
7942;HTU21D;4016;50.758;7.150;2024-02-28T03:43:22;4.41;118.99
7942;HTU21D;4016;50.758;7.150;2024-02-28T03:48:23;4.71;118.99
7942;HTU21D;4016;50.758;7.150;2024-02-28T03:53:23;4.45;118.99
7942;HTU21D;4016;50.758;7.150;2024-02-28T03:58:24;4.82;118.99
7942;HTU21D;4016;50.758;7.150;2024-02-28T04:03:24;4.51;118.99
7942;HTU21D;4016;50.758;7.150;2024-02-28T04:08:24;4.38;118.99
7942;HTU21D;4016;50.758;7.150;2024-02-28T04:13:25;4.29;118.99
7942;HTU21D;4016;50.758;7.150;2024-02-28T04:18:25;4.31;118.99
7942;HTU21D;4016;50.758;7.150;2024-02-28T04:23:25;4.24;118.99
7942;HTU21D;4016;50.758;7.150;2024-02-28T04:28:26;4.24;118.99
7942;HTU21D;4016;50.758;7.150;2024-02-28T04:33:26;4.51;118.99
7942;HTU21D;4016;50.758;7.150;2024-02-28T04:38:26;4.31;118.99
7942;HTU21D;4016;50.758;7.150;2024-02-28T04:43:27;4.31;118.99
7942;HTU21D;4016;50.758;7.150;2024-02-28T04:48:27;4.31;118.99
7942;HTU21D;4016;50.758;7.150;2024-02-28T04:53:28;4.31;118.99
7942;HTU21D;4016;50.758;7.150;2024-02-28T04:58:28;4.31;118.99
7942;HTU21D;4016;50.758;7.150;2024-02-28T05:03:28;4.32;118.99
7942;HTU21D;4016;50.758;7.150;2024-02-28T05:08:29;4.29;118.99
7942;HTU21D;4016;50.758;7.150;2024-02-28T05:13:29;4.27;118.99
7942;HTU21D;4016;50.758;7.150;2024-02-28T05:18:30;4.42;118.99
7942;HTU21D;4016;50.758;7.150;2024-02-28T05:23:30;4.38;118.99
7942;HTU21D;4016;50.758;7.150;2024-02-28T05:28:31;4.39;118.99
7942;HTU21D;4016;50.758;7.150;2024-02-28T05:33:33;4.20;118.99
7942;HTU21D;4016;50.758;7.150;2024-02-28T05:38:33;4.28;118.99
7942;HTU21D;4016;50.758;7.150;2024-02-28T05:43:33;4.21;118.99
7942;HTU21D;4016;50.758;7.150;2024-02-28T05:48:34;4.19;118.99
7942;HTU21D;4016;50.758;7.150;2024-02-28T05:53:34;4.19;118.99
7942;HTU21D;4016;50.758;7.150;2024-02-28T05:58:36;4.21;118.99
7942;HTU21D;4016;50.758;7.150;2024-02-28T06:03:37;4.29;118.99
7942;HTU21D;4016;50.758;7.150;2024-02-28T06:08:38;4.26;118.99
7942;HTU21D;4016;50.758;7.150;2024-02-28T06:13:42;4.24;118.99
7942;HTU21D;4016;50.758;7.150;2024-02-28T06:18:43;4.26;118.99
7942;HTU21D;4016;50.758;7.150;2024-02-28T06:23:43;4.26;118.99
7942;HTU21D;4016;50.758;7.150;2024-02-28T06:28:44;4.26;118.99
7942;HTU21D;4016;50.758;7.150;2024-02-28T06:33:47;4.28;118.99
7942;HTU21D;4016;50.758;7.150;2024-02-28T06:38:48;4.31;118.99
7942;HTU21D;4016;50.758;7.150;2024-02-28T06:43:48;4.29;118.99
7942;HTU21D;4016;50.758;7.150;2024-02-28T06:48:48;4.27;118.99
7942;HTU21D;4016;50.758;7.150;2024-02-28T06:53:49;4.33;118.99
7942;HTU21D;4016;50.758;7.150;2024-02-28T06:58:49;4.33;118.99
7942;HTU21D;4016;50.758;7.150;2024-02-28T07:03:50;4.41;118.99
7942;HTU21D;4016;50.758;7.150;2024-02-28T07:08:50;4.41;118.99
7942;HTU21D;4016;50.758;7.150;2024-02-28T07:13:50;4.45;118.99
7942;HTU21D;4016;50.758;7.150;2024-02-28T07:18:51;4.47;118.99
7942;HTU21D;4016;50.758;7.150;2024-02-28T07:23:51;4.59;118.99
7942;HTU21D;4016;50.758;7.150;2024-02-28T07:28:51;4.62;118.99
7942;HTU21D;4016;50.758;7.150;2024-02-28T07:33:52;4.76;118.99
7942;HTU21D;4016;50.758;7.150;2024-02-28T07:38:52;4.88;118.99
7942;HTU21D;4016;50.758;7.150;2024-02-28T07:43:53;4.77;118.99
7942;HTU21D;4016;50.758;7.150;2024-02-28T07:48:53;4.84;118.99
7942;HTU21D;4016;50.758;7.150;2024-02-28T07:53:54;4.95;118.99
7942;HTU21D;4016;50.758;7.150;2024-02-28T07:58:54;4.96;118.99
7942;HTU21D;4016;50.758;7.150;2024-02-28T08:03:54;5.03;118.99
7942;HTU21D;4016;50.758;7.150;2024-02-28T08:08:55;5.15;118.99
7942;HTU21D;4016;50.758;7.150;2024-02-28T08:13:55;5.12;118.99
7942;HTU21D;4016;50.758;7.150;2024-02-28T08:18:56;5.25;118.99
7942;HTU21D;4016;50.758;7.150;2024-02-28T08:23:57;5.24;118.99
7942;HTU21D;4016;50.758;7.150;2024-02-28T08:28:58;5.33;118.99
7942;HTU21D;4016;50.758;7.150;2024-02-28T08:33:58;5.48;118.99
7942;HTU21D;4016;50.758;7.150;2024-02-28T08:38:59;5.55;118.99
7942;HTU21D;4016;50.758;7.150;2024-02-28T08:43:59;5.69;118.99
7942;HTU21D;4016;50.758;7.150;2024-02-28T08:49:00;5.81;118.99
7942;HTU21D;4016;50.758;7.150;2024-02-28T08:54:00;5.96;118.99
7942;HTU21D;4016;50.758;7.150;2024-02-28T08:59:02;6.15;118.99
7942;HTU21D;4016;50.758;7.150;2024-02-28T09:04:02;6.42;118.99
7942;HTU21D;4016;50.758;7.150;2024-02-28T09:09:03;6.57;118.99
7942;HTU21D;4016;50.758;7.150;2024-02-28T09:14:04;6.48;118.99
7942;HTU21D;4016;50.758;7.150;2024-02-28T09:19:04;6.38;118.99
7942;HTU21D;4016;50.758;7.150;2024-02-28T09:24:05;6.56;118.99
7942;HTU21D;4016;50.758;7.150;2024-02-28T09:29:05;6.71;118.99
7942;HTU21D;4016;50.758;7.150;2024-02-28T09:34:06;6.96;118.99
7942;HTU21D;4016;50.758;7.150;2024-02-28T09:39:09;7.08;118.99
7942;HTU21D;4016;50.758;7.150;2024-02-28T09:44:11;7.31;118.99
7942;HTU21D;4016;50.758;7.150;2024-02-28T09:49:13;7.32;118.99
7942;HTU21D;4016;50.758;7.150;2024-02-28T09:54:14;7.48;118.99
7942;HTU21D;4016;50.758;7.150;2024-02-28T09:59:18;7.63;118.99
7942;HTU21D;4016;50.758;7.150;2024-02-28T10:04:19;7.74;118.99
7942;HTU21D;4016;50.758;7.150;2024-02-28T10:09:19;7.82;118.99
7942;HTU21D;4016;50.758;7.150;2024-02-28T10:14:20;7.62;118.99
7942;HTU21D;4016;50.758;7.150;2024-02-28T10:19:20;7.85;118.99
7942;HTU21D;4016;50.758;7.150;2024-02-28T10:24:24;8.07;118.99
7942;HTU21D;4016;50.758;7.150;2024-02-28T10:29:25;8.13;118.99
7942;HTU21D;4016;50.758;7.150;2024-02-28T10:34:25;8.32;118.99
7942;HTU21D;4016;50.758;7.150;2024-02-28T10:39:26;8.47;118.99
7942;HTU21D;4016;50.758;7.150;2024-02-28T10:44:27;8.55;118.99
7942;HTU21D;4016;50.758;7.150;2024-02-28T10:49:31;8.72;118.99
7942;HTU21D;4016;50.758;7.150;2024-02-28T10:54:32;8.80;118.99
7942;HTU21D;4016;50.758;7.150;2024-02-28T10:59:35;9.07;118.99
7942;HTU21D;4016;50.758;7.150;2024-02-28T11:04:37;9.33;118.99
7942;HTU21D;4016;50.758;7.150;2024-02-28T11:09:41;9.39;118.99
7942;HTU21D;4016;50.758;7.150;2024-02-28T11:14:41;9.32;118.99
7942;HTU21D;4016;50.758;7.150;2024-02-28T11:19:41;9.46;118.99
7942;HTU21D;4016;50.758;7.150;2024-02-28T11:24:44;9.46;118.99
7942;HTU21D;4016;50.758;7.150;2024-02-28T11:29:44;9.77;118.99
7942;HTU21D;4016;50.758;7.150;2024-02-28T11:34:49;9.92;118.99
7942;HTU21D;4016;50.758;7.150;2024-02-28T11:39:51;10.09;118.99
7942;HTU21D;4016;50.758;7.150;2024-02-28T11:44:55;10.31;118.99
7942;HTU21D;4016;50.758;7.150;2024-02-28T11:49:59;10.46;118.99
7942;HTU21D;4016;50.758;7.150;2024-02-28T11:55:00;10.64;118.37
7942;HTU21D;4016;50.758;7.150;2024-02-28T12:00:07;10.80;113.67
7942;HTU21D;4016;50.758;7.150;2024-02-28T12:05:09;10.74;117.44
7942;HTU21D;4016;50.758;7.150;2024-02-28T12:10:09;11.05;116.27
7942;HTU21D;4016;50.758;7.150;2024-02-28T12:15:10;11.22;111.74
7942;HTU21D;4016;50.758;7.150;2024-02-28T12:20:10;11.26;112.52
7942;HTU21D;4016;50.758;7.150;2024-02-28T12:25:11;11.38;109.30
7942;HTU21D;4016;50.758;7.150;2024-02-28T12:30:12;11.52;113.97
7942;HTU21D;4016;50.758;7.150;2024-02-28T12:35:12;11.69;102.49
7942;HTU21D;4016;50.758;7.150;2024-02-28T12:40:13;11.66;106.79
7942;HTU21D;4016;50.758;7.150;2024-02-28T12:45:16;11.64;108.59
7942;HTU21D;4016;50.758;7.150;2024-02-28T12:50:16;11.76;112.45
7942;HTU21D;4016;50.758;7.150;2024-02-28T12:55:17;12.14;108.71
7942;HTU21D;4016;50.758;7.150;2024-02-28T13:00:17;12.45;108.68
7942;HTU21D;4016;50.758;7.150;2024-02-28T13:05:18;12.49;110.29
7942;HTU21D;4016;50.758;7.150;2024-02-28T13:10:18;12.49;104.80
7942;HTU21D;4016;50.758;7.150;2024-02-28T13:15:18;12.43;101.46
7942;HTU21D;4016;50.758;7.150;2024-02-28T13:20:19;12.48;105.17
7942;HTU21D;4016;50.758;7.150;2024-02-28T13:25:19;12.74;106.95
7942;HTU21D;4016;50.758;7.150;2024-02-28T13:30:20;12.67;104.89
7942;HTU21D;4016;50.758;7.150;2024-02-28T13:35:20;12.96;102.77
7942;HTU21D;4016;50.758;7.150;2024-02-28T13:40:20;12.73;99.29
7942;HTU21D;4016;50.758;7.150;2024-02-28T13:45:21;12.79;96.75
7942;HTU21D;4016;50.758;7.150;2024-02-28T13:50:22;12.90;94.27
7942;HTU21D;4016;50.758;7.150;2024-02-28T13:55:29;12.93;94.62
7942;HTU21D;4016;50.758;7.150;2024-02-28T14:00:29;13.16;92.07
7942;HTU21D;4016;50.758;7.150;2024-02-28T14:05:30;13.11;94.16
7942;HTU21D;4016;50.758;7.150;2024-02-28T14:10:30;13.10;87.15
7942;HTU21D;4016;50.758;7.150;2024-02-28T14:15:31;12.90;88.44
7942;HTU21D;4016;50.758;7.150;2024-02-28T14:20:31;13.08;86.09
7942;HTU21D;4016;50.758;7.150;2024-02-28T14:25:32;13.11;88.74
7942;HTU21D;4016;50.758;7.150;2024-02-28T14:30:33;13.18;88.16
7942;HTU21D;4016;50.758;7.150;2024-02-28T14:35:34;13.11;85.77
7942;HTU21D;4016;50.758;7.150;2024-02-28T14:40:34;13.22;85.94
7942;HTU21D;4016;50.758;7.150;2024-02-28T14:45:34;13.34;84.49
7942;HTU21D;4016;50.758;7.150;2024-02-28T14:50:35;13.20;87.98
7942;HTU21D;4016;50.758;7.150;2024-02-28T14:55:35;13.27;90.49
7942;HTU21D;4016;50.758;7.150;2024-02-28T15:00:35;13.05;95.30
7942;HTU21D;4016;50.758;7.150;2024-02-28T15:05:36;13.01;93.49
7942;HTU21D;4016;50.758;7.150;2024-02-28T15:10:36;12.85;95.08
7942;HTU21D;4016;50.758;7.150;2024-02-28T15:15:37;12.89;95.23
7942;HTU21D;4016;50.758;7.150;2024-02-28T15:20:37;13.05;91.06
7942;HTU21D;4016;50.758;7.150;2024-02-28T15:25:38;13.00;92.32
7942;HTU21D;4016;50.758;7.150;2024-02-28T15:30:38;12.93;94.68
7942;HTU21D;4016;50.758;7.150;2024-02-28T15:35:39;12.84;96.84
7942;HTU21D;4016;50.758;7.150;2024-02-28T15:40:39;12.88;94.43
7942;HTU21D;4016;50.758;7.150;2024-02-28T15:45:39;12.80;95.94
7942;HTU21D;4016;50.758;7.150;2024-02-28T15:50:43;12.75;92.20
7942;HTU21D;4016;50.758;7.150;2024-02-28T15:55:43;12.64;91.05
7942;HTU21D;4016;50.758;7.150;2024-02-28T16:00:44;12.51;87.99
7942;HTU21D;4016;50.758;7.150;2024-02-28T16:05:45;12.44;89.89
7942;HTU21D;4016;50.758;7.150;2024-02-28T16:10:45;12.33;91.60
7942;HTU21D;4016;50.758;7.150;2024-02-28T16:15:46;12.19;93.66
7942;HTU21D;4016;50.758;7.150;2024-02-28T16:20:46;12.06;96.37
7942;HTU21D;4016;50.758;7.150;2024-02-28T16:25:46;11.89;97.19
7942;HTU21D;4016;50.758;7.150;2024-02-28T16:30:47;11.79;97.76
7942;HTU21D;4016;50.758;7.150;2024-02-28T16:35:47;11.56;99.53
7942;HTU21D;4016;50.758;7.150;2024-02-28T16:40:48;11.32;102.18
7942;HTU21D;4016;50.758;7.150;2024-02-28T16:45:48;11.27;102.38
7942;HTU21D;4016;50.758;7.150;2024-02-28T16:50:49;11.01;103.54
7942;HTU21D;4016;50.758;7.150;2024-02-28T16:55:50;10.83;103.99
7942;HTU21D;4016;50.758;7.150;2024-02-28T17:00:50;10.68;104.23
7942;HTU21D;4016;50.758;7.150;2024-02-28T17:05:51;10.46;105.80
7942;HTU21D;4016;50.758;7.150;2024-02-28T17:10:51;10.33;106.01
7942;HTU21D;4016;50.758;7.150;2024-02-28T17:15:52;10.13;107.66
7942;HTU21D;4016;50.758;7.150;2024-02-28T17:20:54;9.96;108.98
7942;HTU21D;4016;50.758;7.150;2024-02-28T17:25:55;9.81;110.00
7942;HTU21D;4016;50.758;7.150;2024-02-28T17:30:56;9.68;109.94
7942;HTU21D;4016;50.758;7.150;2024-02-28T17:35:57;9.56;112.45
7942;HTU21D;4016;50.758;7.150;2024-02-28T17:40:57;9.50;115.23
7942;HTU21D;4016;50.758;7.150;2024-02-28T17:45:58;9.27;117.14
7942;HTU21D;4016;50.758;7.150;2024-02-28T17:51:03;9.11;118.57
7942;HTU21D;4016;50.758;7.150;2024-02-28T17:56:03;9.12;118.99
7942;HTU21D;4016;50.758;7.150;2024-02-28T18:01:06;8.92;118.99
7942;HTU21D;4016;50.758;7.150;2024-02-28T18:06:07;8.77;118.99
7942;HTU21D;4016;50.758;7.150;2024-02-28T18:11:07;8.83;118.99
7942;HTU21D;4016;50.758;7.150;2024-02-28T18:16:08;8.67;118.99
7942;HTU21D;4016;50.758;7.150;2024-02-28T18:21:09;8.49;118.99
7942;HTU21D;4016;50.758;7.150;2024-02-28T18:26:10;8.42;118.99
7942;HTU21D;4016;50.758;7.150;2024-02-28T18:31:12;8.30;118.99
7942;HTU21D;4016;50.758;7.150;2024-02-28T18:36:12;8.23;118.99
7942;HTU21D;4016;50.758;7.150;2024-02-28T18:41:13;8.16;118.99
7942;HTU21D;4016;50.758;7.150;2024-02-28T18:46:13;8.09;118.99
7942;HTU21D;4016;50.758;7.150;2024-02-28T18:51:16;7.97;118.99
7942;HTU21D;4016;50.758;7.150;2024-02-28T18:56:16;7.85;118.99
7942;HTU21D;4016;50.758;7.150;2024-02-28T19:01:16;7.73;118.99
7942;HTU21D;4016;50.758;7.150;2024-02-28T19:06:17;7.64;118.99
7942;HTU21D;4016;50.758;7.150;2024-02-28T19:11:18;7.55;118.99
7942;HTU21D;4016;50.758;7.150;2024-02-28T19:16:19;7.56;118.99
7942;HTU21D;4016;50.758;7.150;2024-02-28T19:21:19;7.56;118.99
7942;HTU21D;4016;50.758;7.150;2024-02-28T19:26:19;7.50;118.99
7942;HTU21D;4016;50.758;7.150;2024-02-28T19:31:20;7.49;118.99
7942;HTU21D;4016;50.758;7.150;2024-02-28T19:36:20;7.48;118.99
7942;HTU21D;4016;50.758;7.150;2024-02-28T19:41:21;7.44;118.99
7942;HTU21D;4016;50.758;7.150;2024-02-28T19:46:21;7.42;118.99
7942;HTU21D;4016;50.758;7.150;2024-02-28T19:51:21;7.39;118.99
7942;HTU21D;4016;50.758;7.150;2024-02-28T19:56:22;7.32;118.99
7942;HTU21D;4016;50.758;7.150;2024-02-28T20:01:23;7.53;118.99
7942;HTU21D;4016;50.758;7.150;2024-02-28T20:06:24;7.43;118.99
7942;HTU21D;4016;50.758;7.150;2024-02-28T20:11:25;7.46;118.99
7942;HTU21D;4016;50.758;7.150;2024-02-28T20:16:25;7.34;118.99
7942;HTU21D;4016;50.758;7.150;2024-02-28T20:21:26;7.33;118.99
7942;HTU21D;4016;50.758;7.150;2024-02-28T20:26:28;7.30;118.99
7942;HTU21D;4016;50.758;7.150;2024-02-28T20:31:28;7.27;118.99
7942;HTU21D;4016;50.758;7.150;2024-02-28T20:36:28;7.19;118.99
7942;HTU21D;4016;50.758;7.150;2024-02-28T20:41:29;7.16;118.99
7942;HTU21D;4016;50.758;7.150;2024-02-28T20:46:30;7.16;118.99
7942;HTU21D;4016;50.758;7.150;2024-02-28T20:51:31;7.12;118.99
7942;HTU21D;4016;50.758;7.150;2024-02-28T20:56:31;7.17;118.99
7942;HTU21D;4016;50.758;7.150;2024-02-28T21:01:33;7.12;118.99
7942;HTU21D;4016;50.758;7.150;2024-02-28T21:06:34;7.07;118.99
7942;HTU21D;4016;50.758;7.150;2024-02-28T21:11:35;7.09;118.99
7942;HTU21D;4016;50.758;7.150;2024-02-28T21:16:36;7.05;118.99
7942;HTU21D;4016;50.758;7.150;2024-02-28T21:21:36;7.00;118.99
7942;HTU21D;4016;50.758;7.150;2024-02-28T21:26:37;6.95;118.99
7942;HTU21D;4016;50.758;7.150;2024-02-28T21:31:37;6.85;118.99
7942;HTU21D;4016;50.758;7.150;2024-02-28T21:36:38;6.85;118.99
7942;HTU21D;4016;50.758;7.150;2024-02-28T21:41:38;6.76;118.99
7942;HTU21D;4016;50.758;7.150;2024-02-28T21:46:38;6.89;118.99
7942;HTU21D;4016;50.758;7.150;2024-02-28T21:51:39;6.75;118.99
7942;HTU21D;4016;50.758;7.150;2024-02-28T21:56:39;6.71;118.99
7942;HTU21D;4016;50.758;7.150;2024-02-28T22:01:41;6.63;118.99
7942;HTU21D;4016;50.758;7.150;2024-02-28T22:06:41;6.57;118.99
7942;HTU21D;4016;50.758;7.150;2024-02-28T22:11:41;6.52;118.99
7942;HTU21D;4016;50.758;7.150;2024-02-28T22:16:42;6.41;118.99
7942;HTU21D;4016;50.758;7.150;2024-02-28T22:21:42;6.43;118.99
7942;HTU21D;4016;50.758;7.150;2024-02-28T22:26:42;6.36;118.99
7942;HTU21D;4016;50.758;7.150;2024-02-28T22:31:43;6.40;118.99
7942;HTU21D;4016;50.758;7.150;2024-02-28T22:36:44;6.43;118.99
7942;HTU21D;4016;50.758;7.150;2024-02-28T22:41:44;6.30;118.99
7942;HTU21D;4016;50.758;7.150;2024-02-28T22:46:45;6.22;118.99
7942;HTU21D;4016;50.758;7.150;2024-02-28T22:51:45;6.23;118.99
7942;HTU21D;4016;50.758;7.150;2024-02-28T22:56:47;6.27;118.99
7942;HTU21D;4016;50.758;7.150;2024-02-28T23:01:47;6.14;118.99
7942;HTU21D;4016;50.758;7.150;2024-02-28T23:06:48;6.01;118.99
7942;HTU21D;4016;50.758;7.150;2024-02-28T23:11:48;6.04;118.99
7942;HTU21D;4016;50.758;7.150;2024-02-28T23:16:49;6.12;118.99
7942;HTU21D;4016;50.758;7.150;2024-02-28T23:21:49;5.94;118.99
7942;HTU21D;4016;50.758;7.150;2024-02-28T23:26:50;5.84;118.99
7942;HTU21D;4016;50.758;7.150;2024-02-28T23:31:50;5.82;118.99
7942;HTU21D;4016;50.758;7.150;2024-02-28T23:36:51;5.86;118.99
7942;HTU21D;4016;50.758;7.150;2024-02-28T23:41:52;5.75;118.99
7942;HTU21D;4016;50.758;7.150;2024-02-28T23:46:52;5.89;118.99
7942;HTU21D;4016;50.758;7.150;2024-02-28T23:51:53;5.72;118.99
7942;HTU21D;4016;50.758;7.150;2024-02-28T23:56:54;5.71;118.99
